createdAt,value
2023-04-07T00:01:15.857Z,76.83
2023-04-07T00:03:46.863Z,76.73
2023-04-07T00:06:15.239Z,76.46
2023-04-07T00:08:48.945Z,76.99
2023-04-07T00:11:17.937Z,76.92
2023-04-07T00:13:47.647Z,76.78
2023-04-07T00:16:16.374Z,76.90
2023-04-07T00:18:44.920Z,76.41
2023-04-07T00:21:13.296Z,76.32
2023-04-07T00:23:43.105Z,76.48
2023-04-07T00:26:11.585Z,76.33
2023-04-07T00:28:40.990Z,76.53
2023-04-07T00:31:13.477Z,76.11
2023-04-07T00:33:41.842Z,75.85
2023-04-07T00:36:11.062Z,75.55
2023-04-07T00:38:40.005Z,75.93
2023-04-07T00:41:08.526Z,76.03
2023-04-07T00:43:38.833Z,76.07
2023-04-07T00:46:07.650Z,75.20
2023-04-07T00:48:37.010Z,75.48
2023-04-07T00:51:05.710Z,75.01
2023-04-07T00:53:33.891Z,74.48
2023-04-07T00:56:03.389Z,74.39
2023-04-07T00:58:31.926Z,74.56
2023-04-07T01:01:16.142Z,74.77
2023-04-07T01:03:49.119Z,75.02
2023-04-07T01:06:18.715Z,74.56
2023-04-07T01:09:08.124Z,74.92
2023-04-07T01:11:42.819Z,75.64
2023-04-07T01:14:12.316Z,74.91
2023-04-07T01:16:48.781Z,75.44
2023-04-07T01:19:21.797Z,75.28
2023-04-07T01:21:56.186Z,75.55
2023-04-07T01:24:43.916Z,75.07
2023-04-07T01:27:21.630Z,75.07
2023-04-07T01:29:51.229Z,74.49
2023-04-07T01:32:20.631Z,74.40
2023-04-07T01:34:52.184Z,74.50
2023-04-07T01:37:22.024Z,74.73
2023-04-07T01:39:50.577Z,74.93
2023-04-07T01:42:19.667Z,74.96
2023-04-07T01:44:48.358Z,74.45
2023-04-07T01:47:16.859Z,74.83
2023-04-07T01:49:45.833Z,74.83
2023-04-07T01:52:14.312Z,74.84
2023-04-07T01:54:43.512Z,74.74
2023-04-07T01:57:12.501Z,74.22
2023-04-07T01:59:42.110Z,74.50
2023-04-07T02:02:14.450Z,74.59
2023-04-07T02:04:53.512Z,75.17
2023-04-07T02:07:25.063Z,74.87
2023-04-07T02:09:54.061Z,74.89
2023-04-07T02:12:22.330Z,74.72
2023-04-07T02:15:01.160Z,74.62
2023-04-07T02:17:32.285Z,75.07
2023-04-07T02:20:00.998Z,74.98
2023-04-07T02:22:29.876Z,75.29
2023-04-07T02:24:58.461Z,75.71
2023-04-07T02:27:29.098Z,75.69
2023-04-07T02:29:57.685Z,75.77
2023-04-07T02:32:26.478Z,75.74
2023-04-07T02:34:55.248Z,75.76
2023-04-07T02:37:27.352Z,75.74
2023-04-07T02:39:56.730Z,76.09
2023-04-07T02:42:25.603Z,76.27
2023-04-07T02:44:54.150Z,75.85
2023-04-07T02:47:22.725Z,76.21
2023-04-07T02:49:51.558Z,76.97
2023-04-07T02:52:20.242Z,76.40
2023-04-07T02:54:48.729Z,77.07
2023-04-07T02:57:18.748Z,77.17
2023-04-07T02:59:47.946Z,77.55
2023-04-07T03:02:19.152Z,76.68
2023-04-07T03:04:47.768Z,76.60
2023-04-07T03:07:17.196Z,76.72
2023-04-07T03:09:47.806Z,76.78
2023-04-07T03:12:18.016Z,76.87
2023-04-07T03:14:46.805Z,76.81
2023-04-07T03:17:19.525Z,76.61
2023-04-07T03:19:52.106Z,76.82
2023-04-07T03:22:21.473Z,76.52
2023-04-07T03:24:54.249Z,76.43
2023-04-07T03:27:24.272Z,76.58
2023-04-07T03:29:53.260Z,76.77
2023-04-07T03:32:23.333Z,76.38
2023-04-07T03:34:51.859Z,76.91
2023-04-07T03:37:20.298Z,77.02
2023-04-07T03:39:50.272Z,77.09
2023-04-07T03:42:28.784Z,77.30
2023-04-07T03:45:02.805Z,77.68
2023-04-07T03:47:32.187Z,77.59
2023-04-07T03:50:03.262Z,77.46
2023-04-07T03:52:34.328Z,77.48
2023-04-07T03:55:09.966Z,77.15
2023-04-07T03:57:38.906Z,76.95
2023-04-07T04:00:08.761Z,77.44
2023-04-07T04:02:47.667Z,77.37
2023-04-07T04:05:20.017Z,78.08
2023-04-07T04:07:51.678Z,77.99
2023-04-07T04:10:21.444Z,78.32
2023-04-07T04:12:51.698Z,78.41
2023-04-07T04:15:21.621Z,78.57
2023-04-07T04:17:51.301Z,78.38
2023-04-07T04:20:27.545Z,78.01
2023-04-07T04:22:55.941Z,77.98
2023-04-07T04:25:24.769Z,77.68
2023-04-07T04:27:58.254Z,77.98
2023-04-07T04:30:28.477Z,77.81
2023-04-07T04:33:01.960Z,77.79
2023-04-07T04:35:40.798Z,78.02
2023-04-07T04:38:12.657Z,78.18
2023-04-07T04:40:49.132Z,78.59
2023-04-07T04:43:20.903Z,78.47
2023-04-07T04:45:49.497Z,78.59
2023-04-07T04:48:18.976Z,78.59
2023-04-07T04:50:49.601Z,78.65
2023-04-07T04:53:21.593Z,78.54
2023-04-07T04:55:54.692Z,78.77
2023-04-07T04:58:25.699Z,78.40
2023-04-07T05:00:59.978Z,77.53
2023-04-07T05:03:51.391Z,77.78
2023-04-07T05:06:24.321Z,78.11
2023-04-07T05:08:57.113Z,77.85
2023-04-07T05:11:28.240Z,77.96
2023-04-07T05:13:57.342Z,77.78
2023-04-07T05:16:28.106Z,78.29
2023-04-07T05:18:58.710Z,78.20
2023-04-07T05:21:30.309Z,78.53
2023-04-07T05:24:09.294Z,78.24
2023-04-07T05:26:38.791Z,78.26
2023-04-07T05:29:07.287Z,78.27
2023-04-07T05:31:37.573Z,77.74
2023-04-07T05:34:08.440Z,77.74
2023-04-07T05:36:38.651Z,78.26
2023-04-07T05:39:07.792Z,78.71
2023-04-07T05:41:36.646Z,78.84
2023-04-07T05:44:07.060Z,78.68
2023-04-07T05:46:38.312Z,79.03
2023-04-07T05:49:18.892Z,78.72
2023-04-07T05:51:50.650Z,78.45
2023-04-07T05:54:19.316Z,78.20
2023-04-07T05:56:48.308Z,78.34
2023-04-07T05:59:17.913Z,78.34
2023-04-07T06:01:49.352Z,78.81
2023-04-07T06:04:18.215Z,78.83
2023-04-07T06:06:47.740Z,79.05
2023-04-07T06:09:26.410Z,79.88
2023-04-07T06:11:54.973Z,80.60
2023-04-07T06:14:23.655Z,80.34
2023-04-07T06:16:56.665Z,80.31
2023-04-07T06:19:28.104Z,80.54
2023-04-07T06:21:56.769Z,80.53
2023-04-07T06:24:25.574Z,80.69
2023-04-07T06:26:54.883Z,81.16
2023-04-07T06:29:23.241Z,81.31
2023-04-07T06:31:53.259Z,81.86
2023-04-07T06:34:21.977Z,81.34
2023-04-07T06:36:50.532Z,81.71
2023-04-07T06:39:20.334Z,81.64
2023-04-07T06:41:48.811Z,81.27
2023-04-07T06:44:17.228Z,80.83
2023-04-07T06:46:47.831Z,80.00
2023-04-07T06:49:18.456Z,79.99
2023-04-07T06:51:46.842Z,79.73
2023-04-07T06:54:15.828Z,80.29
2023-04-07T06:56:45.227Z,80.21
2023-04-07T06:59:13.733Z,80.43
2023-04-07T07:01:42.664Z,80.33
2023-04-07T07:04:11.897Z,79.91
2023-04-07T07:06:41.208Z,79.50
2023-04-07T07:09:10.403Z,78.85
2023-04-07T07:11:45.443Z,78.98
2023-04-07T07:14:15.964Z,78.87
2023-04-07T07:16:44.557Z,79.05
2023-04-07T07:19:17.745Z,79.36
2023-04-07T07:21:46.748Z,79.62
2023-04-07T07:24:15.628Z,79.81
2023-04-07T07:26:46.360Z,80.07
2023-04-07T07:29:14.949Z,80.26
2023-04-07T07:31:45.571Z,80.60
2023-04-07T07:34:14.257Z,80.75
2023-04-07T07:36:42.854Z,80.99
2023-04-07T07:39:11.937Z,81.16
2023-04-07T07:41:40.633Z,81.36
2023-04-07T07:44:09.203Z,82.59
2023-04-07T07:46:37.919Z,82.65
2023-04-07T07:49:07.293Z,83.23
2023-04-07T07:51:36.183Z,83.18
2023-04-07T07:54:04.659Z,83.27
2023-04-07T07:56:33.245Z,83.02
2023-04-07T07:59:02.339Z,82.77
2023-04-07T08:01:33.615Z,82.24
2023-04-07T08:04:02.737Z,82.66
2023-04-07T08:06:31.979Z,83.01
2023-04-07T08:09:01.380Z,83.49
2023-04-07T08:11:29.993Z,83.91
2023-04-07T08:14:00.713Z,84.01
2023-04-07T08:16:29.748Z,84.17
2023-04-07T08:18:58.377Z,84.18
2023-04-07T08:21:28.186Z,84.93
2023-04-07T08:23:57.300Z,85.31
2023-04-07T08:26:25.570Z,85.62
2023-04-07T08:28:56.391Z,85.04
2023-04-07T08:31:24.706Z,85.03
2023-04-07T08:33:59.191Z,85.08
2023-04-07T08:36:28.255Z,85.52
2023-04-07T08:38:58.097Z,85.68
2023-04-07T08:41:31.187Z,85.66
2023-04-07T08:43:59.715Z,86.28
2023-04-07T08:46:28.410Z,87.10
2023-04-07T08:48:57.242Z,88.12
2023-04-07T08:51:27.566Z,88.96
2023-04-07T08:54:16.532Z,89.45
2023-04-07T08:56:48.904Z,89.50
2023-04-07T08:59:25.599Z,89.88
2023-04-07T09:01:54.818Z,89.82
2023-04-07T09:04:25.000Z,90.05
2023-04-07T09:06:53.776Z,89.47
2023-04-07T09:09:22.775Z,89.16
2023-04-07T09:11:54.117Z,88.86
2023-04-07T09:14:22.710Z,87.99
2023-04-07T09:16:51.404Z,88.31
2023-04-07T09:19:20.889Z,88.33
2023-04-07T09:21:52.902Z,88.22
2023-04-07T09:24:21.965Z,88.45
2023-04-07T09:26:50.643Z,88.54
2023-04-07T09:29:20.791Z,88.54
2023-04-07T09:31:52.075Z,89.04
2023-04-07T09:34:24.076Z,89.42
2023-04-07T09:36:52.856Z,89.77
2023-04-07T09:39:21.535Z,90.40
2023-04-07T09:41:50.261Z,90.87
2023-04-07T09:44:19.430Z,91.23
2023-04-07T09:46:50.879Z,91.60
2023-04-07T09:49:20.747Z,91.63
2023-04-07T09:51:52.948Z,92.51
2023-04-07T09:54:37.939Z,92.50
2023-04-07T09:57:07.017Z,92.06
2023-04-07T09:59:37.964Z,91.88
2023-04-07T10:02:08.483Z,91.75
2023-04-07T10:04:37.739Z,91.43
2023-04-07T10:07:06.266Z,90.71
2023-04-07T10:09:35.774Z,90.80
2023-04-07T10:12:04.383Z,90.64
2023-04-07T10:14:32.941Z,90.55
2023-04-07T10:17:03.133Z,90.05
2023-04-07T10:19:32.985Z,89.71
2023-04-07T10:22:02.275Z,89.68
2023-04-07T10:24:56.774Z,89.23
2023-04-07T10:27:29.951Z,89.17
2023-04-07T10:29:58.744Z,88.88
2023-04-07T10:32:27.324Z,88.00
2023-04-07T10:34:59.530Z,86.50
2023-04-07T10:37:28.281Z,86.66
2023-04-07T10:40:15.599Z,86.79
2023-04-07T10:42:43.979Z,86.45
2023-04-07T10:45:13.276Z,85.88
2023-04-07T10:48:01.237Z,85.77
2023-04-07T10:50:29.804Z,85.65
2023-04-07T10:53:10.976Z,85.90
2023-04-07T10:55:39.772Z,85.72
2023-04-07T10:58:15.096Z,84.96
2023-04-07T11:00:45.021Z,84.44
2023-04-07T11:03:14.328Z,84.67
2023-04-07T11:05:43.628Z,84.21
2023-04-07T11:08:12.021Z,83.37
2023-04-07T11:10:47.765Z,83.44
2023-04-07T11:13:18.797Z,83.36
2023-04-07T11:15:47.393Z,82.85
2023-04-07T11:18:23.749Z,82.50
2023-04-07T11:20:53.560Z,82.51
2023-04-07T11:23:23.357Z,81.55
2023-04-07T11:25:52.668Z,80.88
2023-04-07T11:28:20.955Z,80.76
2023-04-07T11:30:53.088Z,80.54
2023-04-07T11:33:23.662Z,80.81
2023-04-07T11:35:53.469Z,79.91
2023-04-07T11:38:22.440Z,80.36
2023-04-07T11:40:51.557Z,80.43
2023-04-07T11:43:25.446Z,80.12
2023-04-07T11:46:12.232Z,80.13
2023-04-07T11:48:47.708Z,79.41
2023-04-07T11:51:21.231Z,79.24
2023-04-07T11:53:54.698Z,78.86
2023-04-07T11:56:24.817Z,78.72
2023-04-07T11:58:53.716Z,78.26
2023-04-07T12:01:22.303Z,78.88
2023-04-07T12:04:02.447Z,78.43
2023-04-07T12:06:38.447Z,78.02
2023-04-07T12:09:08.523Z,77.72
2023-04-07T12:11:37.540Z,77.30
2023-04-07T12:14:09.373Z,76.79
2023-04-07T12:16:39.014Z,77.21
2023-04-07T12:19:07.353Z,77.42
2023-04-07T12:21:35.739Z,77.55
2023-04-07T12:24:04.117Z,77.11
2023-04-07T12:26:32.704Z,77.61
2023-04-07T12:29:07.247Z,77.72
2023-04-07T12:31:35.920Z,78.25
2023-04-07T12:34:06.247Z,78.57
2023-04-07T12:36:35.569Z,78.79
2023-04-07T12:39:03.964Z,79.04
2023-04-07T12:41:33.948Z,78.76
2023-04-07T12:44:03.171Z,78.35
2023-04-07T12:46:34.019Z,78.26
2023-04-07T12:49:04.100Z,78.49
2023-04-07T12:51:36.766Z,78.81
2023-04-07T12:54:06.156Z,78.61
2023-04-07T12:56:34.743Z,78.44
2023-04-07T12:59:03.593Z,78.76
2023-04-07T13:01:33.513Z,78.55
2023-04-07T13:04:03.032Z,78.75
2023-04-07T13:06:32.609Z,78.54
2023-04-07T13:09:01.402Z,79.02
2023-04-07T13:11:30.537Z,78.60
2023-04-07T13:14:01.102Z,78.86
2023-04-07T13:16:31.651Z,79.15
2023-04-07T13:19:00.703Z,79.00
2023-04-07T13:21:45.160Z,78.64
2023-04-07T13:24:17.122Z,78.34
2023-04-07T13:26:46.719Z,78.26
2023-04-07T13:29:16.242Z,78.01
2023-04-07T13:31:48.007Z,78.30
2023-04-07T13:34:17.481Z,78.29
2023-04-07T13:36:47.600Z,78.14
2023-04-07T13:39:16.290Z,78.03
2023-04-07T13:41:48.528Z,77.49
2023-04-07T13:44:18.388Z,77.52
2023-04-07T13:46:47.630Z,77.52
2023-04-07T13:49:18.200Z,77.68
2023-04-07T13:51:47.112Z,78.03
2023-04-07T13:54:17.260Z,78.04
2023-04-07T13:56:45.691Z,77.98
2023-04-07T13:59:16.078Z,78.21
2023-04-07T14:01:44.858Z,78.28
2023-04-07T14:04:14.578Z,78.32
2023-04-07T14:06:43.691Z,78.58
2023-04-07T14:09:13.240Z,78.57
2023-04-07T14:11:42.104Z,78.91
2023-04-07T14:14:14.742Z,78.70
2023-04-07T14:16:45.837Z,78.54
2023-04-07T14:19:14.917Z,78.49
2023-04-07T14:21:45.495Z,78.62
2023-04-07T14:24:13.825Z,78.65
2023-04-07T14:26:47.263Z,79.00
2023-04-07T14:29:15.821Z,78.45
2023-04-07T14:31:45.639Z,78.45
2023-04-07T14:34:13.997Z,78.36
2023-04-07T14:36:44.188Z,78.52
2023-04-07T14:39:13.656Z,78.63
2023-04-07T14:41:42.203Z,78.78
2023-04-07T14:44:13.952Z,78.81
2023-04-07T14:46:43.101Z,78.59
2023-04-07T14:49:13.688Z,78.19
2023-04-07T14:51:42.074Z,78.22
2023-04-07T14:54:11.116Z,78.22
2023-04-07T14:56:41.669Z,78.02
2023-04-07T14:59:11.870Z,77.89
2023-04-07T15:01:40.979Z,77.50
2023-04-07T15:04:11.586Z,77.22
2023-04-07T15:06:44.056Z,77.31
2023-04-07T15:09:14.062Z,77.36
2023-04-07T15:11:43.260Z,77.47
2023-04-07T15:14:14.549Z,77.73
2023-04-07T15:16:48.726Z,78.19
2023-04-07T15:19:17.434Z,78.84
2023-04-07T15:21:46.232Z,79.15
2023-04-07T15:24:17.874Z,79.01
2023-04-07T15:26:47.672Z,79.48
2023-04-07T15:29:17.658Z,79.42
2023-04-07T15:31:46.532Z,79.51
2023-04-07T15:34:15.680Z,79.58
2023-04-07T15:36:44.143Z,79.60
2023-04-07T15:39:13.442Z,79.83
2023-04-07T15:41:44.054Z,80.14
2023-04-07T15:44:13.459Z,80.10
2023-04-07T15:46:41.743Z,80.33
2023-04-07T15:49:10.725Z,80.19
2023-04-07T15:51:40.316Z,80.32
2023-04-07T15:54:09.317Z,80.60
2023-04-07T15:56:38.312Z,80.63
2023-04-07T15:59:06.861Z,80.63
2023-04-07T16:01:35.523Z,80.63
2023-04-07T16:04:07.653Z,80.77
2023-04-07T16:06:36.781Z,80.92
2023-04-07T16:09:11.082Z,81.17
2023-04-07T16:11:42.298Z,81.22
2023-04-07T16:14:10.785Z,81.15
2023-04-07T16:16:47.672Z,80.84
2023-04-07T16:19:16.897Z,80.49
2023-04-07T16:21:46.427Z,80.31
2023-04-07T16:24:16.344Z,80.34
2023-04-07T16:26:50.703Z,80.90
2023-04-07T16:29:19.793Z,81.04
2023-04-07T16:31:48.838Z,81.00
2023-04-07T16:34:18.542Z,81.20
2023-04-07T16:36:47.691Z,81.43
2023-04-07T16:39:18.261Z,81.93
2023-04-07T16:41:46.758Z,82.09
2023-04-07T16:44:22.646Z,82.76
2023-04-07T16:46:53.184Z,83.11
2023-04-07T16:49:24.617Z,83.27
2023-04-07T16:51:55.126Z,83.43
2023-04-07T16:54:23.588Z,83.78
2023-04-07T16:56:54.292Z,84.14
2023-04-07T16:59:24.206Z,85.07
2023-04-07T17:01:59.182Z,85.31
2023-04-07T17:04:28.384Z,85.51
2023-04-07T17:06:57.677Z,85.45
2023-04-07T17:09:28.189Z,85.94
2023-04-07T17:11:57.649Z,86.20
2023-04-07T17:14:26.171Z,86.15
2023-04-07T17:16:58.004Z,86.04
2023-04-07T17:19:27.921Z,86.06
2023-04-07T17:21:56.770Z,86.22
2023-04-07T17:24:26.133Z,86.29
2023-04-07T17:26:55.564Z,86.72
2023-04-07T17:29:29.404Z,86.96
2023-04-07T17:31:57.933Z,87.15
2023-04-07T17:34:26.326Z,87.15
2023-04-07T17:37:01.816Z,87.76
2023-04-07T17:39:31.932Z,88.12
2023-04-07T17:42:02.526Z,88.19
2023-04-07T17:44:34.488Z,88.49
2023-04-07T17:47:03.518Z,88.69
2023-04-07T17:49:32.994Z,89.00
2023-04-07T17:52:01.913Z,89.52
2023-04-07T17:54:31.350Z,90.01
2023-04-07T17:57:03.788Z,90.20
2023-04-07T17:59:32.801Z,90.70
2023-04-07T18:02:07.665Z,91.15
2023-04-07T18:04:37.998Z,91.91
2023-04-07T18:07:06.872Z,92.46
2023-04-07T18:09:35.620Z,92.72
2023-04-07T18:12:08.957Z,93.36
2023-04-07T18:14:38.621Z,93.71
2023-04-07T18:17:07.301Z,93.71
2023-04-07T18:19:37.968Z,93.89
2023-04-07T18:22:06.638Z,93.76
2023-04-07T18:24:39.671Z,94.02
2023-04-07T18:27:08.633Z,94.22
2023-04-07T18:29:39.653Z,94.31
2023-04-07T18:32:09.200Z,94.31
2023-04-07T18:34:38.448Z,94.41
2023-04-07T18:37:09.193Z,94.03
2023-04-07T18:39:37.664Z,94.11
2023-04-07T18:42:06.896Z,93.99
2023-04-07T18:44:37.241Z,93.75
2023-04-07T18:47:05.794Z,93.67
2023-04-07T18:49:35.206Z,93.19
2023-04-07T18:52:04.571Z,93.27
2023-04-07T18:54:35.223Z,93.16
2023-04-07T18:57:05.527Z,93.20
2023-04-07T18:59:35.292Z,93.12
2023-04-07T19:02:04.618Z,93.03
2023-04-07T19:04:33.761Z,92.75
2023-04-07T19:07:02.799Z,92.86
2023-04-07T19:09:33.526Z,92.77
2023-04-07T19:12:02.509Z,93.32
2023-04-07T19:14:32.585Z,93.84
2023-04-07T19:17:01.666Z,94.34
2023-04-07T19:19:30.740Z,94.75
2023-04-07T19:22:02.731Z,94.96
2023-04-07T19:24:32.495Z,95.38
2023-04-07T19:27:02.457Z,95.63
2023-04-07T19:29:32.683Z,96.00
2023-04-07T19:32:01.785Z,95.73
2023-04-07T19:34:31.083Z,95.27
2023-04-07T19:36:59.886Z,94.89
2023-04-07T19:39:28.379Z,95.04
2023-04-07T19:41:57.892Z,95.15
2023-04-07T19:44:26.837Z,94.67
2023-04-07T19:46:55.424Z,94.50
2023-04-07T19:49:24.822Z,94.32
2023-04-07T19:51:56.272Z,94.18
2023-04-07T19:54:25.113Z,94.88
2023-04-07T19:56:54.305Z,95.48
2023-04-07T19:59:24.018Z,95.80
2023-04-07T20:01:53.191Z,95.52
2023-04-07T20:04:21.715Z,95.46
2023-04-07T20:06:50.126Z,95.23
2023-04-07T20:09:20.756Z,95.45
2023-04-07T20:11:49.548Z,95.25
2023-04-07T20:14:17.821Z,95.28
2023-04-07T20:16:47.387Z,95.72
2023-04-07T20:19:16.118Z,95.86
2023-04-07T20:21:45.084Z,96.11
2023-04-07T20:24:13.691Z,95.90
2023-04-07T20:34:09.375Z,96.01
2023-04-07T20:36:38.455Z,96.17
2023-04-07T20:39:06.827Z,96.15
2023-04-07T20:41:35.318Z,95.90
2023-04-07T20:44:04.532Z,96.09
2023-04-07T20:46:37.251Z,96.18
2023-04-07T20:49:08.150Z,96.49
2023-04-07T20:51:37.229Z,96.39
2023-04-07T20:54:05.652Z,96.51
2023-04-07T20:56:35.218Z,96.60
2023-04-07T20:59:09.424Z,96.06
2023-04-07T21:01:38.766Z,96.07
2023-04-07T21:04:07.330Z,96.23
2023-04-07T21:06:36.200Z,96.40
2023-04-07T21:09:06.031Z,96.30
2023-04-07T21:11:34.802Z,96.45
2023-04-07T21:14:03.493Z,96.32
2023-04-07T21:16:31.763Z,96.40
2023-04-07T21:19:01.163Z,96.62
2023-04-07T21:21:33.331Z,96.54
2023-04-07T21:24:01.714Z,96.69
2023-04-07T21:26:30.498Z,96.42
2023-04-07T21:28:59.488Z,96.22
2023-04-07T21:31:28.109Z,96.23
2023-04-07T21:33:56.554Z,96.39
2023-04-07T21:36:25.134Z,96.36
2023-04-07T21:38:54.132Z,96.13
2023-04-07T21:41:22.616Z,96.17
2023-04-07T21:43:51.706Z,96.17
2023-04-07T21:46:20.205Z,96.21
2023-04-07T21:48:49.512Z,96.27
2023-04-07T21:51:20.732Z,95.94
2023-04-07T21:53:49.109Z,95.92
2023-04-07T21:56:17.791Z,95.64
2023-04-07T21:58:47.537Z,95.57
2023-04-07T22:01:17.363Z,95.51
2023-04-07T22:03:46.752Z,95.51
2023-04-07T22:06:15.818Z,95.13
2023-04-07T22:08:51.649Z,95.12
2023-04-07T22:11:29.070Z,95.17
2023-04-07T22:13:57.744Z,95.04
2023-04-07T22:16:26.281Z,94.84
2023-04-07T22:19:00.747Z,94.72
2023-04-07T22:21:30.052Z,94.53
2023-04-07T22:23:58.628Z,94.66
2023-04-07T22:26:28.257Z,94.61
2023-04-07T22:28:56.915Z,94.72
2023-04-07T22:31:25.825Z,95.02
2023-04-07T22:33:54.188Z,95.90
2023-04-07T22:36:22.476Z,96.07
2023-04-07T22:38:51.211Z,96.06
2023-04-07T22:41:19.585Z,96.70
2023-04-07T22:43:48.005Z,97.12
2023-04-07T22:46:17.996Z,97.46
2023-04-07T22:48:46.430Z,97.19
2023-04-07T22:51:17.545Z,97.53
2023-04-07T22:53:46.478Z,97.75
2023-04-07T22:56:19.523Z,97.73
2023-04-07T22:58:49.440Z,98.29
2023-04-07T23:01:18.472Z,98.51
2023-04-07T23:03:47.733Z,98.84
2023-04-07T23:06:16.833Z,98.96
2023-04-07T23:08:45.205Z,98.63
2023-04-07T23:11:13.579Z,98.48
2023-04-07T23:13:42.369Z,98.48
2023-04-07T23:16:14.029Z,99.00
2023-04-07T23:18:43.149Z,98.66
2023-04-07T23:21:12.219Z,98.26
2023-04-07T23:23:40.805Z,97.53
2023-04-07T23:26:09.481Z,97.19
2023-04-07T23:28:38.401Z,97.24
2023-04-07T23:31:08.193Z,97.25
2023-04-07T23:33:37.503Z,97.90
2023-04-07T23:36:06.434Z,98.08
2023-04-07T23:38:36.632Z,98.17
2023-04-07T23:41:05.194Z,98.02
2023-04-07T23:43:33.868Z,97.87
2023-04-07T23:46:02.615Z,97.39
2023-04-07T23:48:32.467Z,97.08
2023-04-07T23:51:00.860Z,97.13
2023-04-07T23:53:29.431Z,96.87
2023-04-07T23:55:57.928Z,96.93
2023-04-07T23:58:27.010Z,96.89
